createdAt,value
2023-02-16T00:01:52.654Z,21.70
2023-02-16T00:04:25.111Z,19.70
2023-02-16T00:06:52.783Z,19.27
2023-02-16T00:09:20.368Z,20.92
2023-02-16T00:12:06.312Z,20.95
2023-02-16T00:14:37.468Z,20.08
2023-02-16T00:17:04.994Z,20.38
2023-02-16T00:19:37.152Z,18.38
2023-02-16T00:22:04.794Z,21.02
2023-02-16T00:24:31.975Z,19.58
2023-02-16T00:26:59.775Z,20.98
2023-02-16T00:29:30.759Z,20.23
2023-02-16T00:31:59.141Z,22.17
2023-02-16T00:34:41.155Z,20.10
2023-02-16T00:37:12.427Z,20.23
2023-02-16T00:39:40.393Z,20.58
2023-02-16T00:42:11.936Z,20.52
2023-02-16T00:44:55.135Z,21.02
2023-02-16T00:47:25.801Z,20.08
2023-02-16T00:49:54.297Z,21.63
2023-02-16T00:52:42.754Z,20.10
2023-02-16T00:55:10.921Z,19.70
2023-02-16T00:57:42.604Z,18.83
2023-02-16T01:00:12.625Z,17.52
2023-02-16T01:02:39.260Z,19.52
2023-02-16T01:05:06.129Z,21.83
2023-02-16T01:07:51.209Z,21.88
2023-02-16T01:10:39.688Z,19.67
2023-02-16T01:13:06.770Z,23.10
2023-02-16T01:15:34.186Z,20.58
2023-02-16T01:18:01.238Z,22.35
2023-02-16T01:20:28.332Z,19.33
2023-02-16T01:22:54.977Z,20.98
2023-02-16T01:25:21.682Z,23.17
2023-02-16T01:27:48.519Z,20.42
2023-02-16T01:30:19.155Z,20.40
2023-02-16T01:32:51.371Z,22.90
2023-02-16T01:35:23.572Z,19.52
2023-02-16T01:37:50.778Z,18.77
2023-02-16T01:40:37.225Z,20.58
2023-02-16T01:43:24.787Z,21.27
2023-02-16T01:46:00.431Z,21.20
2023-02-16T01:48:29.229Z,22.10
2023-02-16T01:51:04.138Z,21.75
2023-02-16T01:53:42.763Z,22.63
2023-02-16T01:56:24.569Z,19.25
2023-02-16T01:58:55.437Z,20.73
2023-02-16T02:01:30.993Z,22.80
2023-02-16T02:04:17.879Z,18.75
2023-02-16T02:06:46.235Z,21.20
2023-02-16T02:09:42.687Z,20.33
2023-02-16T02:12:21.280Z,21.45
2023-02-16T02:14:49.152Z,18.90
2023-02-16T02:17:18.894Z,20.05
2023-02-16T02:19:54.500Z,21.23
2023-02-16T02:23:01.098Z,21.27
2023-02-16T02:25:53.591Z,19.55
2023-02-16T02:28:54.228Z,22.30
2023-02-16T02:31:32.907Z,21.17
2023-02-16T02:34:18.458Z,20.75
2023-02-16T02:36:44.992Z,19.38
2023-02-16T02:39:30.624Z,22.08
2023-02-16T02:42:10.735Z,20.38
2023-02-16T02:45:04.406Z,18.58
2023-02-16T02:47:44.059Z,20.98
2023-02-16T02:50:32.109Z,20.45
2023-02-16T02:53:03.445Z,20.80
2023-02-16T02:55:52.518Z,21.10
2023-02-16T02:58:40.692Z,20.40
2023-02-16T03:01:09.309Z,21.25
2023-02-16T03:03:42.129Z,18.30
2023-02-16T03:06:17.636Z,25.50
2023-02-16T03:08:47.983Z,16.52
2023-02-16T03:11:40.211Z,19.73
2023-02-16T03:14:22.295Z,19.17
2023-02-16T03:17:14.843Z,18.10
2023-02-16T03:20:02.351Z,19.40
2023-02-16T03:22:48.410Z,19.42
2023-02-16T03:25:34.416Z,17.73
2023-02-16T03:28:21.261Z,19.15
2023-02-16T03:30:50.274Z,19.73
2023-02-16T03:33:17.256Z,19.50
2023-02-16T03:35:45.207Z,20.27
2023-02-16T03:38:12.096Z,20.63
2023-02-16T03:40:40.943Z,18.58
2023-02-16T03:43:08.636Z,17.80
2023-02-16T03:45:41.966Z,20.35
2023-02-16T03:48:09.051Z,20.17
2023-02-16T03:50:35.581Z,17.58
2023-02-16T03:53:08.266Z,18.88
2023-02-16T03:55:45.886Z,19.25
2023-02-16T03:58:19.191Z,16.23
2023-02-16T04:00:45.760Z,20.87
2023-02-16T04:03:13.001Z,17.20
2023-02-16T04:05:39.734Z,19.88
2023-02-16T04:08:06.722Z,19.00
2023-02-16T04:10:33.315Z,19.88
2023-02-16T04:12:59.902Z,21.08
2023-02-16T04:15:28.297Z,20.02
2023-02-16T04:17:55.218Z,17.33
2023-02-16T04:20:24.844Z,18.55
2023-02-16T04:22:51.876Z,18.42
2023-02-16T04:25:18.887Z,16.73
2023-02-16T04:27:46.131Z,18.73
2023-02-16T04:30:15.686Z,18.40
2023-02-16T04:32:42.258Z,19.27
2023-02-16T04:35:09.623Z,19.63
2023-02-16T04:37:36.245Z,18.23
2023-02-16T04:40:04.217Z,16.90
2023-02-16T04:42:30.777Z,20.05
2023-02-16T04:44:57.245Z,25.50
2023-02-16T04:47:25.888Z,18.02
2023-02-16T04:49:53.333Z,22.83
2023-02-16T04:52:20.288Z,19.88
2023-02-16T04:54:46.835Z,19.17
2023-02-16T04:57:13.336Z,18.48
2023-02-16T04:59:39.837Z,17.42
2023-02-16T05:02:06.525Z,17.58
2023-02-16T05:04:33.340Z,19.73
2023-02-16T05:06:59.907Z,20.27
2023-02-16T05:09:26.405Z,20.67
2023-02-16T05:12:11.195Z,18.55
2023-02-16T05:14:44.768Z,18.98
2023-02-16T05:17:18.712Z,20.02
2023-02-16T05:19:47.581Z,20.60
2023-02-16T05:22:15.061Z,19.77
2023-02-16T05:24:42.570Z,21.73
2023-02-16T05:27:13.222Z,17.45
2023-02-16T05:29:39.755Z,20.48
2023-02-16T05:32:06.519Z,18.50
2023-02-16T05:34:33.045Z,21.05
2023-02-16T05:36:59.496Z,20.30
2023-02-16T05:39:25.962Z,21.00
2023-02-16T05:41:52.477Z,22.05
2023-02-16T05:44:19.028Z,24.90
2023-02-16T05:46:46.649Z,21.40
2023-02-16T05:49:14.609Z,22.33
2023-02-16T05:51:41.554Z,26.98
2023-02-16T05:54:10.626Z,24.35
2023-02-16T05:56:37.275Z,21.48
2023-02-16T05:59:03.769Z,22.45
2023-02-16T06:01:30.263Z,20.98
2023-02-16T06:03:56.839Z,19.88
2023-02-16T06:06:23.349Z,18.80
2023-02-16T06:08:49.934Z,21.55
2023-02-16T06:11:35.036Z,20.20
2023-02-16T06:14:03.187Z,28.63
2023-02-16T06:16:31.324Z,18.63
2023-02-16T06:18:58.791Z,18.60
2023-02-16T06:21:25.528Z,18.63
2023-02-16T06:23:52.389Z,19.55
2023-02-16T06:26:19.809Z,23.27
2023-02-16T06:28:46.353Z,19.90
2023-02-16T06:31:13.089Z,18.13
2023-02-16T06:33:39.787Z,21.05
2023-02-16T06:36:06.900Z,21.25
2023-02-16T06:38:33.374Z,20.25
2023-02-16T06:40:59.888Z,20.52
2023-02-16T06:43:28.793Z,20.42
2023-02-16T06:45:56.465Z,17.55
2023-02-16T06:48:23.019Z,19.73
2023-02-16T06:50:52.300Z,19.83
2023-02-16T06:53:20.317Z,23.25
2023-02-16T06:55:47.189Z,20.45
2023-02-16T06:58:13.754Z,19.52
2023-02-16T07:00:40.318Z,22.00
2023-02-16T07:03:06.846Z,20.60
2023-02-16T07:05:33.351Z,21.58
2023-02-16T07:07:59.837Z,20.25
2023-02-16T07:10:28.061Z,20.98
2023-02-16T07:12:57.205Z,21.48
2023-02-16T07:15:23.671Z,19.95
2023-02-16T07:17:50.172Z,24.13
2023-02-16T07:20:18.000Z,21.02
2023-02-16T07:22:44.541Z,22.30
2023-02-16T07:25:11.048Z,20.33
2023-02-16T07:27:37.562Z,19.10
2023-02-16T07:30:04.232Z,19.52
2023-02-16T07:32:30.848Z,24.65
2023-02-16T07:34:57.448Z,20.35
2023-02-16T07:37:24.381Z,20.75
2023-02-16T07:39:50.897Z,21.83
2023-02-16T07:42:17.427Z,25.10
2023-02-16T07:44:47.159Z,22.35
2023-02-16T07:47:14.467Z,21.73
2023-02-16T07:49:41.293Z,23.80
2023-02-16T07:52:07.842Z,23.75
2023-02-16T07:54:34.384Z,23.83
2023-02-16T07:57:00.847Z,24.42
2023-02-16T07:59:27.384Z,23.48
2023-02-16T08:01:53.953Z,23.15
2023-02-16T08:04:20.689Z,21.80
2023-02-16T08:06:48.731Z,23.90
2023-02-16T08:09:18.361Z,22.65
2023-02-16T08:11:47.978Z,23.60
2023-02-16T08:14:15.908Z,21.70
2023-02-16T08:16:42.673Z,23.98
2023-02-16T08:19:11.100Z,30.83
2023-02-16T08:21:37.622Z,22.90
2023-02-16T08:24:08.575Z,23.85
2023-02-16T08:26:40.053Z,22.83
2023-02-16T08:29:13.146Z,22.38
2023-02-16T08:31:39.798Z,21.38
2023-02-16T08:34:06.886Z,26.05
2023-02-16T08:36:38.623Z,23.50
2023-02-16T08:39:08.001Z,22.65
2023-02-16T08:41:36.211Z,24.48
2023-02-16T08:44:04.160Z,26.45
2023-02-16T08:46:32.385Z,27.20
2023-02-16T08:49:00.275Z,29.17
2023-02-16T08:51:29.007Z,29.55
2023-02-16T08:53:58.518Z,29.15
2023-02-16T08:56:25.654Z,28.85
2023-02-16T08:58:52.247Z,32.83
2023-02-16T09:01:19.335Z,32.53
2023-02-16T09:03:46.669Z,31.05
2023-02-16T09:06:15.471Z,32.97
2023-02-16T09:08:42.265Z,35.40
2023-02-16T09:11:12.840Z,31.35
2023-02-16T09:13:41.076Z,31.67
2023-02-16T09:16:13.401Z,31.13
2023-02-16T09:18:40.219Z,30.23
2023-02-16T09:21:12.590Z,32.75
2023-02-16T09:23:41.052Z,32.83
2023-02-16T09:26:09.867Z,32.03
2023-02-16T09:28:38.256Z,33.03
2023-02-16T09:31:25.857Z,27.75
2023-02-16T09:33:58.269Z,30.52
2023-02-16T09:36:24.869Z,33.97
2023-02-16T09:38:51.503Z,33.15
2023-02-16T09:41:31.898Z,31.70
2023-02-16T09:44:26.273Z,28.90
2023-02-16T09:46:56.147Z,28.35
2023-02-16T09:49:25.463Z,27.25
2023-02-16T09:52:36.029Z,29.80
2023-02-16T09:55:11.697Z,30.95
2023-02-16T09:57:41.854Z,27.08
2023-02-16T10:00:22.112Z,33.08
2023-02-16T10:03:32.180Z,34.63
2023-02-16T10:06:22.208Z,26.90
2023-02-16T10:08:57.184Z,27.60
2023-02-16T10:11:48.775Z,29.55
2023-02-16T10:14:33.996Z,25.92
2023-02-16T10:17:12.408Z,27.42
2023-02-16T10:20:06.242Z,26.02
2023-02-16T10:22:39.592Z,36.20
2023-02-16T10:25:15.124Z,29.52
2023-02-16T10:27:45.537Z,24.45
2023-02-16T10:30:15.808Z,26.48
2023-02-16T10:32:54.284Z,36.85
2023-02-16T10:35:44.939Z,32.40
2023-02-16T10:38:32.028Z,26.20
2023-02-16T10:41:25.647Z,23.38
2023-02-16T10:44:02.987Z,20.80
2023-02-16T10:46:38.197Z,24.55
2023-02-16T10:49:04.853Z,20.00
2023-02-16T10:51:36.814Z,14.13
2023-02-16T10:54:22.334Z,16.85
2023-02-16T10:57:05.910Z,17.58
2023-02-16T10:59:46.894Z,19.58
2023-02-16T11:02:24.993Z,17.98
2023-02-16T11:04:54.302Z,17.23
2023-02-16T11:07:23.423Z,15.02
2023-02-16T11:09:55.453Z,16.48
2023-02-16T11:12:33.996Z,22.35
2023-02-16T11:15:18.761Z,16.00
2023-02-16T11:17:54.592Z,17.08
2023-02-16T11:20:47.451Z,24.17
2023-02-16T11:23:17.944Z,20.13
2023-02-16T11:25:53.994Z,17.60
2023-02-16T11:28:32.898Z,14.80
2023-02-16T11:31:03.969Z,13.70
2023-02-16T11:33:31.806Z,12.43
2023-02-16T11:35:58.421Z,13.98
2023-02-16T11:38:37.026Z,13.45
2023-02-16T11:41:06.387Z,11.85
2023-02-16T11:43:37.207Z,12.45
2023-02-16T11:46:17.723Z,13.35
2023-02-16T11:48:45.002Z,11.80
2023-02-16T11:51:15.228Z,12.40
2023-02-16T11:53:44.150Z,13.57
2023-02-16T11:56:13.798Z,13.57
2023-02-16T11:58:40.960Z,12.60
2023-02-16T12:01:25.746Z,10.95
2023-02-16T12:04:13.415Z,14.18
2023-02-16T12:06:48.488Z,10.85
2023-02-16T12:09:41.990Z,11.77
2023-02-16T12:12:27.392Z,9.98
2023-02-16T12:15:03.441Z,10.85
2023-02-16T12:18:01.181Z,11.32
2023-02-16T12:20:35.829Z,14.90
2023-02-16T12:23:23.576Z,13.35
2023-02-16T12:26:26.665Z,12.63
2023-02-16T12:29:12.058Z,16.58
2023-02-16T12:32:02.801Z,12.77
2023-02-16T12:35:14.464Z,10.50
2023-02-16T12:37:49.736Z,14.25
2023-02-16T12:40:47.102Z,11.20
2023-02-16T12:43:26.477Z,13.45
2023-02-16T12:45:57.734Z,14.07
2023-02-16T12:48:53.921Z,13.30
2023-02-16T12:51:32.590Z,11.27
2023-02-16T12:54:22.496Z,13.30
2023-02-16T12:56:59.158Z,11.25
2023-02-16T12:59:47.095Z,13.02
2023-02-16T13:02:21.623Z,13.07
2023-02-16T13:04:59.711Z,12.45
2023-02-16T13:07:32.631Z,10.20
2023-02-16T13:10:17.562Z,13.40
2023-02-16T13:12:53.908Z,12.50
2023-02-16T13:15:34.079Z,13.77
2023-02-16T13:18:11.306Z,14.45
2023-02-16T13:20:42.674Z,12.57
2023-02-16T13:23:21.822Z,12.55
2023-02-16T13:26:10.966Z,14.00
2023-02-16T13:29:23.173Z,15.57
2023-02-16T13:35:21.780Z,10.57
2023-02-16T13:38:09.920Z,12.82
2023-02-16T13:40:45.109Z,9.98
2023-02-16T13:43:39.778Z,11.93
2023-02-16T13:46:36.512Z,13.45
2023-02-16T13:49:03.920Z,14.07
2023-02-16T13:51:43.477Z,14.85
2023-02-16T13:54:44.765Z,16.30
2023-02-16T13:57:34.777Z,13.63
2023-02-16T14:00:05.698Z,17.60
2023-02-16T14:03:00.246Z,11.52
2023-02-16T14:05:31.104Z,12.80
2023-02-16T14:08:18.024Z,20.52
2023-02-16T14:10:53.764Z,15.73
2023-02-16T14:13:26.343Z,18.95
2023-02-16T14:15:55.913Z,14.52
2023-02-16T14:18:36.014Z,17.83
2023-02-16T14:21:04.939Z,13.68
2023-02-16T14:23:36.982Z,15.63
2023-02-16T14:26:05.637Z,18.33
2023-02-16T14:28:32.312Z,15.15
2023-02-16T14:31:03.300Z,15.23
2023-02-16T14:33:44.119Z,14.75
2023-02-16T14:36:26.146Z,18.52
2023-02-16T14:38:55.371Z,18.08
2023-02-16T14:41:34.389Z,14.30
2023-02-16T14:44:06.715Z,13.90
2023-02-16T14:46:51.895Z,14.68
2023-02-16T14:49:49.413Z,17.85
2023-02-16T14:52:49.362Z,17.00
2023-02-16T14:55:33.780Z,15.50
2023-02-16T14:58:23.662Z,16.92
2023-02-16T15:01:02.540Z,21.25
2023-02-16T15:03:41.445Z,16.88
2023-02-16T15:06:17.687Z,14.75
2023-02-16T15:08:48.951Z,16.70
2023-02-16T15:11:32.798Z,17.88
2023-02-16T15:14:05.616Z,13.82
2023-02-16T15:16:33.543Z,16.15
2023-02-16T15:19:07.554Z,15.57
2023-02-16T15:21:34.374Z,14.02
2023-02-16T15:24:01.965Z,17.95
2023-02-16T15:26:35.492Z,16.70
2023-02-16T15:29:22.146Z,17.05
2023-02-16T15:31:49.305Z,20.58
2023-02-16T15:34:35.657Z,14.00
2023-02-16T15:37:19.062Z,14.82
2023-02-16T15:40:03.021Z,15.77
2023-02-16T15:42:34.142Z,15.20
2023-02-16T15:45:00.679Z,20.33
2023-02-16T15:47:27.491Z,15.65
2023-02-16T15:49:54.586Z,16.13
2023-02-16T15:52:31.905Z,16.40
2023-02-16T15:55:01.838Z,13.35
2023-02-16T15:57:32.048Z,17.23
2023-02-16T16:00:03.097Z,17.15
2023-02-16T16:02:43.726Z,16.33
2023-02-16T16:05:23.709Z,15.77
2023-02-16T16:07:52.844Z,14.35
2023-02-16T16:10:27.106Z,14.27
2023-02-16T16:13:06.277Z,13.70
2023-02-16T16:15:39.899Z,11.43
2023-02-16T16:18:06.743Z,14.73
2023-02-16T16:20:38.396Z,15.85
2023-02-16T16:23:14.144Z,14.32
2023-02-16T16:25:46.515Z,16.88
2023-02-16T16:28:28.116Z,13.77
2023-02-16T16:31:16.113Z,14.10
2023-02-16T16:33:58.923Z,13.95
2023-02-16T16:36:28.406Z,14.43
2023-02-16T16:39:16.900Z,15.63
2023-02-16T16:41:46.937Z,15.25
2023-02-16T16:44:48.158Z,18.33
2023-02-16T16:47:28.668Z,16.30
2023-02-16T16:50:13.024Z,13.55
2023-02-16T16:55:19.413Z,13.43
2023-02-16T16:57:46.755Z,15.88
2023-02-16T17:00:14.080Z,16.50
2023-02-16T17:02:40.554Z,15.80
2023-02-16T17:05:07.620Z,17.80
2023-02-16T17:07:34.284Z,16.10
2023-02-16T17:10:01.208Z,15.40
2023-02-16T17:12:28.414Z,21.42
2023-02-16T17:14:55.922Z,11.90
2023-02-16T17:17:22.783Z,18.15
2023-02-16T17:19:49.430Z,21.80
2023-02-16T17:22:17.915Z,15.48
2023-02-16T17:24:44.719Z,17.10
2023-02-16T17:27:11.355Z,17.95
2023-02-16T17:29:37.931Z,15.55
2023-02-16T17:32:05.278Z,14.43
2023-02-16T17:34:31.941Z,15.68
2023-02-16T17:37:00.801Z,14.55
2023-02-16T17:39:27.397Z,18.88
2023-02-16T17:41:54.126Z,14.82
2023-02-16T17:44:20.645Z,20.95
2023-02-16T17:46:47.427Z,14.00
2023-02-16T17:49:14.627Z,13.18
2023-02-16T17:51:41.553Z,13.40
2023-02-16T17:54:11.461Z,13.63
2023-02-16T17:56:41.795Z,12.95
2023-02-16T17:59:10.163Z,13.70
2023-02-16T18:01:37.631Z,13.45
2023-02-16T18:04:04.312Z,15.13
2023-02-16T18:06:31.654Z,17.45
2023-02-16T18:08:58.338Z,15.82
2023-02-16T18:11:24.805Z,15.05
2023-02-16T18:13:51.828Z,15.57
2023-02-16T18:16:21.734Z,18.63
2023-02-16T18:18:48.279Z,13.40
2023-02-16T18:21:14.789Z,17.27
2023-02-16T18:23:42.083Z,19.13
2023-02-16T18:26:08.935Z,17.83
2023-02-16T18:28:35.701Z,21.42
2023-02-16T18:31:06.531Z,27.27
2023-02-16T18:33:34.746Z,15.75
2023-02-16T18:36:02.120Z,16.10
2023-02-16T18:38:28.684Z,14.80
2023-02-16T18:40:55.728Z,13.73
2023-02-16T18:43:22.791Z,14.52
2023-02-16T18:45:50.018Z,13.52
2023-02-16T18:48:16.711Z,12.43
2023-02-16T18:50:43.271Z,12.35
2023-02-16T18:53:09.785Z,15.40
2023-02-16T18:55:36.250Z,14.63
2023-02-16T18:58:07.413Z,15.82
2023-02-16T19:00:34.781Z,15.38
2023-02-16T19:03:01.509Z,14.50
2023-02-16T19:05:28.157Z,13.48
2023-02-16T19:07:54.682Z,13.55
2023-02-16T19:10:21.280Z,15.50
2023-02-16T19:12:47.841Z,16.65
2023-02-16T19:15:14.320Z,14.35
2023-02-16T19:17:40.943Z,16.65
2023-02-16T19:20:11.562Z,15.48
2023-02-16T19:22:38.161Z,13.90
2023-02-16T19:25:06.226Z,12.32
2023-02-16T19:27:33.000Z,17.25
2023-02-16T19:29:59.531Z,13.48
2023-02-16T19:32:26.042Z,15.05
2023-02-16T19:34:52.608Z,14.10
2023-02-16T19:37:19.177Z,16.40
2023-02-16T19:39:45.801Z,16.25
2023-02-16T19:42:12.349Z,13.60
2023-02-16T19:44:40.244Z,16.95
2023-02-16T19:47:07.169Z,15.75
2023-02-16T19:49:36.357Z,15.30
2023-02-16T19:52:04.097Z,15.85
2023-02-16T19:54:34.683Z,15.30
2023-02-16T19:57:02.295Z,19.85
2023-02-16T19:59:28.785Z,17.65
2023-02-16T20:01:55.467Z,17.85
2023-02-16T20:04:21.981Z,15.27
2023-02-16T20:06:49.099Z,14.65
2023-02-16T20:09:17.873Z,14.80
2023-02-16T20:11:44.567Z,12.77
2023-02-16T20:14:11.864Z,16.38
2023-02-16T20:16:39.495Z,15.40
2023-02-16T20:19:06.326Z,13.27
2023-02-16T20:21:33.511Z,15.48
2023-02-16T20:24:02.794Z,13.90
2023-02-16T20:26:34.353Z,17.52
2023-02-16T20:29:01.478Z,13.88
2023-02-16T20:31:35.399Z,13.75
2023-02-16T20:36:28.521Z,19.23
2023-02-16T20:38:55.231Z,20.63
2023-02-16T20:41:21.879Z,19.52
2023-02-16T20:43:48.746Z,14.77
2023-02-16T20:46:16.943Z,13.55
2023-02-16T20:48:44.568Z,17.17
2023-02-16T20:51:12.830Z,15.95
2023-02-16T20:53:39.882Z,17.42
2023-02-16T20:56:21.334Z,12.45
2023-02-16T20:58:49.774Z,16.65
2023-02-16T21:01:37.576Z,14.43
2023-02-16T21:04:05.866Z,15.77
2023-02-16T21:06:33.106Z,14.55
2023-02-16T21:08:59.653Z,15.52
2023-02-16T21:11:26.412Z,15.95
2023-02-16T21:13:53.365Z,14.65
2023-02-16T21:16:20.890Z,14.70
2023-02-16T21:18:47.405Z,16.92
2023-02-16T21:21:15.704Z,14.85
2023-02-16T21:23:44.331Z,17.13
2023-02-16T21:26:11.529Z,15.45
2023-02-16T21:28:38.380Z,16.70
2023-02-16T21:31:07.708Z,15.77
2023-02-16T21:33:34.368Z,18.48
2023-02-16T21:36:13.413Z,12.77
2023-02-16T21:38:41.870Z,14.05
2023-02-16T21:41:30.141Z,15.10
2023-02-16T21:44:07.589Z,17.85
2023-02-16T21:46:42.348Z,13.77
2023-02-16T21:49:19.700Z,18.70
2023-02-16T21:51:47.482Z,14.30
2023-02-16T21:54:17.123Z,14.43
2023-02-16T21:56:48.204Z,13.32
2023-02-16T21:59:16.686Z,13.93
2023-02-16T22:01:50.920Z,18.70
2023-02-16T22:04:21.628Z,11.90
2023-02-16T22:06:49.511Z,15.48
2023-02-16T22:09:22.076Z,16.35
2023-02-16T22:11:49.554Z,12.23
2023-02-16T22:14:16.464Z,14.77
2023-02-16T22:16:45.378Z,14.13
2023-02-16T22:19:14.226Z,13.18
2023-02-16T22:21:42.503Z,14.57
2023-02-16T22:24:11.833Z,14.07
2023-02-16T22:26:38.340Z,14.05
2023-02-16T22:29:07.475Z,15.13
2023-02-16T22:31:35.379Z,12.90
2023-02-16T22:34:07.164Z,13.00
2023-02-16T22:36:34.262Z,15.80
2023-02-16T22:39:00.792Z,14.15
2023-02-16T22:41:27.330Z,11.77
2023-02-16T22:43:55.235Z,11.77
2023-02-16T22:46:23.079Z,19.25
2023-02-16T22:48:49.684Z,16.33
2023-02-16T22:51:18.162Z,11.32
2023-02-16T22:53:45.238Z,13.70
2023-02-16T22:56:14.191Z,15.00
2023-02-16T22:58:40.987Z,15.32
2023-02-16T23:01:15.962Z,13.82
2023-02-16T23:03:42.923Z,13.20
2023-02-16T23:06:34.176Z,12.57
2023-02-16T23:09:03.962Z,14.10
2023-02-16T23:11:31.470Z,14.13
2023-02-16T23:13:57.946Z,19.17
2023-02-16T23:16:26.334Z,14.77
2023-02-16T23:18:55.502Z,15.63
2023-02-16T23:21:27.039Z,19.02
2023-02-16T23:23:54.719Z,16.70
2023-02-16T23:26:23.332Z,17.92
2023-02-16T23:28:52.273Z,15.60
2023-02-16T23:31:19.172Z,15.88
2023-02-16T23:33:45.809Z,14.38
2023-02-16T23:36:12.329Z,11.40
2023-02-16T23:38:38.906Z,11.50
2023-02-16T23:41:08.321Z,13.30
2023-02-16T23:43:35.209Z,14.00
2023-02-16T23:46:02.760Z,14.63
2023-02-16T23:48:30.171Z,13.68
2023-02-16T23:50:57.278Z,13.20
2023-02-16T23:53:25.629Z,15.05
2023-02-16T23:56:11.788Z,11.32
2023-02-16T23:58:42.236Z,13.98
